Time;durP1;ratioP1;P1;durP2;ratioP2;P2;SDS_P1;SDS_P2;PMS_P1;PMS_P2;Temp;Humidity;BMP_temperature;BMP_pressure;BME280_temperature;BME280_humidity;BME280_pressure;Samples;Min_cycle;Max_cycle;Signal;HPM_P1;HPM_P2
2022/04/25 00:01:02;;;;;;;8.63;4.45;;;;;;;;;;5033979;28;20110;-70
2022/04/25 00:03:28;;;;;;;9.43;5.10;;;;;;;;;;5036194;28;20103;-69
2022/04/25 00:05:53;;;;;;;9.57;4.95;;;;;;;;;;5038447;28;20120;-70
2022/04/25 00:08:19;;;;;;;10.40;5.10;;;;;;;;;;5039870;28;20041;-70
2022/04/25 00:10:44;;;;;;;9.93;5.13;;;;;;;;;;5036269;28;20021;-70
2022/04/25 00:13:11;;;;;;;12.15;5.22;;;;;;;;;;5026861;28;20037;-70
2022/04/25 00:15:36;;;;;;;10.48;5.53;;;;;;;;;;5030238;28;20106;-70
2022/04/25 00:18:01;;;;;;;15.13;5.47;;;;;;;;;;5032255;28;20064;-70
2022/04/25 00:20:27;;;;;;;11.55;5.60;;;;;;;;;;5039114;28;20033;-70
2022/04/25 00:22:52;;;;;;;9.63;5.65;;;;;;;;;;5043436;28;20021;-70
2022/04/25 00:25:17;;;;;;;10.40;5.68;;;;;;;;;;5036737;28;20033;-70
2022/04/25 00:27:43;;;;;;;9.50;5.05;;;;;;;;;;5040812;28;20715;-70
2022/04/25 00:30:09;;;;;;;10.35;5.38;;;;;;;;;;5038058;28;20106;-70
2022/04/25 00:32:34;;;;;;;9.98;5.60;;;;;;;;;;5039197;28;20036;-70
2022/04/25 00:34:59;;;;;;;16.30;5.93;;;;;;;;;;5035368;28;20033;-69
2022/04/25 00:37:25;;;;;;;10.10;5.75;;;;;;;;;;5038517;28;21484;-70
2022/04/25 00:39:50;;;;;;;11.25;5.68;;;;;;;;;;5038932;28;20064;-70
2022/04/25 00:42:15;;;;;;;11.18;5.57;;;;;;;;;;5028850;28;20103;-70
2022/04/25 00:44:44;;;;;;;9.95;5.55;;;;;;;;;;5041496;28;20949;-70
2022/04/25 00:47:09;;;;;;;11.15;6.35;;;;;;;;;;5039839;28;20018;-70
2022/04/25 00:49:35;;;;;;;13.82;5.22;;;;;;;;;;5037582;28;20028;-70
2022/04/25 00:52:01;;;;;;;11.38;5.63;;;;;;;;;;5045316;28;20211;-70
2022/04/25 00:54:26;;;;;;;11.93;5.13;;;;;;;;;;5039667;28;20458;-70
2022/04/25 00:56:52;;;;;;;10.27;5.40;;;;;;;;;;5036581;28;20033;-70
2022/04/25 00:59:19;;;;;;;9.60;5.32;;;;;;;;;;5041229;28;20033;-70
2022/04/25 01:01:46;;;;;;;9.40;5.15;;;;;;;;;;5045030;28;20013;-70
2022/04/25 01:04:12;;;;;;;10.88;5.32;;;;;;;;;;5039598;28;20105;-70
2022/04/25 01:06:37;;;;;;;12.48;5.50;;;;;;;;;;5033909;28;20037;-70
2022/04/25 01:09:04;;;;;;;10.60;5.93;;;;;;;;;;5046712;28;20120;-70
2022/04/25 01:11:29;;;;;;;10.00;4.97;;;;;;;;;;5037196;28;20102;-70
2022/04/25 01:13:55;;;;;;;13.48;5.43;;;;;;;;;;5027797;28;20021;-70
2022/04/25 01:16:20;;;;;;;9.77;5.07;;;;;;;;;;5027724;28;20037;-70
2022/04/25 01:18:46;;;;;;;8.75;5.38;;;;;;;;;;5027819;28;20507;-70
2022/04/25 01:21:13;;;;;;;13.63;5.63;;;;;;;;;;5040545;28;20033;-70
2022/04/25 01:29:09;;;;;;;10.60;5.60;;;;;;;;;;5031468;28;20180;-70
2022/04/25 01:31:35;;;;;;;12.27;5.45;;;;;;;;;;5037539;28;20068;-69
2022/04/25 01:34:00;;;;;;;12.85;5.25;;;;;;;;;;5030066;28;20061;-70
2022/04/25 01:36:26;;;;;;;13.23;5.28;;;;;;;;;;5029074;28;20033;-70
2022/04/25 01:38:52;;;;;;;10.63;5.53;;;;;;;;;;5040281;28;20063;-70
2022/04/25 01:41:18;;;;;;;13.00;5.80;;;;;;;;;;5039983;28;20060;-70
2022/04/25 01:43:43;;;;;;;14.10;5.57;;;;;;;;;;5034151;28;20683;-70
2022/04/25 01:46:08;;;;;;;14.15;5.15;;;;;;;;;;5040283;28;20780;-69
2022/04/25 01:48:34;;;;;;;11.52;5.88;;;;;;;;;;5037936;28;20044;-70
2022/04/25 01:51:00;;;;;;;11.55;4.75;;;;;;;;;;5040069;28;20032;-69
2022/04/25 01:53:25;;;;;;;11.95;5.80;;;;;;;;;;5036339;28;20033;-70
2022/04/25 01:55:51;;;;;;;12.52;5.63;;;;;;;;;;5040271;28;20035;-70
2022/04/25 01:58:17;;;;;;;11.13;5.38;;;;;;;;;;5040553;28;20844;-70
2022/04/25 02:00:44;;;;;;;11.75;6.18;;;;;;;;;;5042345;28;20127;-69
2022/04/25 02:03:10;;;;;;;12.38;6.05;;;;;;;;;;5043650;28;20037;-69
2022/04/25 02:05:35;;;;;;;11.82;5.72;;;;;;;;;;5040571;28;20409;-70
2022/04/25 02:08:02;;;;;;;11.27;6.22;;;;;;;;;;5043289;28;20482;-69
2022/04/25 02:10:28;;;;;;;10.98;6.13;;;;;;;;;;5045445;28;20021;-70
2022/04/25 02:12:53;;;;;;;14.82;6.78;;;;;;;;;;5038465;28;20044;-70
2022/04/25 02:15:19;;;;;;;12.73;5.60;;;;;;;;;;5027633;28;20039;-70
2022/04/25 02:17:44;;;;;;;10.60;6.05;;;;;;;;;;5031994;28;20029;-70
2022/04/25 02:20:11;;;;;;;12.18;6.45;;;;;;;;;;5036224;28;20023;-69
2022/04/25 02:22:36;;;;;;;11.73;6.20;;;;;;;;;;5030524;28;20060;-69
2022/04/25 02:25:03;;;;;;;12.57;6.75;;;;;;;;;;5038459;28;20527;-70
2022/04/25 02:27:28;;;;;;;20.17;7.70;;;;;;;;;;5041182;28;20047;-70
2022/04/25 02:29:58;;;;;;;15.73;6.72;;;;;;;;;;5041466;28;20033;-69
2022/04/25 02:32:23;;;;;;;11.52;5.35;;;;;;;;;;5030480;28;20048;-70
2022/04/25 02:34:50;;;;;;;13.20;7.20;;;;;;;;;;5036932;28;20091;-69
2022/04/25 02:37:15;;;;;;;14.38;7.10;;;;;;;;;;5038410;28;20127;-70
2022/04/25 02:39:41;;;;;;;12.13;6.63;;;;;;;;;;5037460;28;20128;-69
2022/04/25 02:42:07;;;;;;;14.77;6.28;;;;;;;;;;5030635;28;20041;-70
2022/04/25 02:44:32;;;;;;;14.15;6.93;;;;;;;;;;5039008;28;20780;-69
2022/04/25 02:46:57;;;;;;;14.75;7.45;;;;;;;;;;5043367;28;20617;-69
2022/04/25 02:49:23;;;;;;;15.30;7.07;;;;;;;;;;5027411;28;20037;-70
2022/04/25 02:51:48;;;;;;;19.55;7.43;;;;;;;;;;5030569;28;20429;-70
2022/04/25 02:54:13;;;;;;;16.25;7.32;;;;;;;;;;5044058;28;20111;-70
2022/04/25 02:56:38;;;;;;;17.20;7.75;;;;;;;;;;5035363;28;20067;-70
2022/04/25 02:59:04;;;;;;;16.13;7.47;;;;;;;;;;5042448;28;20047;-70
2022/04/25 03:01:29;;;;;;;21.58;7.68;;;;;;;;;;5043225;28;20028;-70
2022/04/25 03:03:55;;;;;;;17.35;8.07;;;;;;;;;;5042491;28;20053;-70
2022/04/25 03:06:20;;;;;;;16.23;8.25;;;;;;;;;;5030950;28;20041;-70
2022/04/25 03:08:45;;;;;;;19.90;9.13;;;;;;;;;;5037630;28;20478;-70
2022/04/25 03:11:10;;;;;;;14.57;7.15;;;;;;;;;;5039684;28;20076;-70
2022/04/25 03:13:38;;;;;;;14.02;7.82;;;;;;;;;;5037385;28;20112;-69
2022/04/25 03:16:05;;;;;;;17.98;7.82;;;;;;;;;;5039863;28;20124;-70
2022/04/25 03:18:30;;;;;;;23.73;8.50;;;;;;;;;;5034827;28;20067;-69
2022/04/25 03:20:56;;;;;;;18.33;8.23;;;;;;;;;;5046714;28;20032;-70
2022/04/25 03:23:23;;;;;;;16.52;8.80;;;;;;;;;;5032825;28;20049;-70
2022/04/25 03:25:49;;;;;;;19.48;8.63;;;;;;;;;;5037058;28;20037;-70
2022/04/25 03:28:16;;;;;;;22.63;8.98;;;;;;;;;;5035271;28;20048;-70
2022/04/25 03:30:41;;;;;;;20.08;8.45;;;;;;;;;;5035158;28;20186;-70
2022/04/25 03:33:08;;;;;;;19.48;8.73;;;;;;;;;;5038892;28;20542;-70
2022/04/25 03:35:34;;;;;;;20.17;9.30;;;;;;;;;;5042099;28;20045;-70
2022/04/25 03:38:00;;;;;;;18.38;9.35;;;;;;;;;;5040526;28;20036;-70
2022/04/25 03:40:25;;;;;;;18.92;9.40;;;;;;;;;;5040611;28;20047;-70
2022/04/25 03:42:51;;;;;;;19.27;9.35;;;;;;;;;;5040609;28;20510;-70
2022/04/25 03:45:18;;;;;;;24.20;9.48;;;;;;;;;;5036303;28;20091;-70
2022/04/25 03:47:46;;;;;;;19.05;9.07;;;;;;;;;;5041212;28;20071;-69
2022/04/25 03:50:13;;;;;;;16.02;7.97;;;;;;;;;;5043009;28;20027;-69
2022/04/25 03:52:42;;;;;;;17.95;10.02;;;;;;;;;;5045682;28;20025;-70
2022/04/25 03:57:56;;;;;;;20.60;9.75;;;;;;;;;;5035077;28;20044;-70
2022/04/25 04:00:22;;;;;;;21.10;10.32;;;;;;;;;;5040690;28;20040;-70
2022/04/25 04:02:48;;;;;;;21.40;10.50;;;;;;;;;;5045116;28;20044;-69
2022/04/25 04:05:13;;;;;;;21.23;10.18;;;;;;;;;;5043897;28;20028;-69
2022/04/25 04:07:40;;;;;;;19.48;9.65;;;;;;;;;;5040359;28;20033;-69
2022/04/25 04:10:06;;;;;;;21.70;9.75;;;;;;;;;;5042034;28;20033;-70
2022/04/25 04:12:31;;;;;;;24.02;10.38;;;;;;;;;;5039943;28;20075;-69
2022/04/25 04:15:05;;;;;;;25.60;10.98;;;;;;;;;;5038535;28;20450;-70
2022/04/25 04:17:31;;;;;;;21.58;10.50;;;;;;;;;;5039144;28;20044;-69
2022/04/25 04:19:56;;;;;;;24.13;10.27;;;;;;;;;;5037504;28;20511;-69
2022/04/25 04:22:22;;;;;;;19.10;10.35;;;;;;;;;;5035608;28;20043;-69
2022/04/25 04:24:49;;;;;;;19.25;9.88;;;;;;;;;;5032578;28;20044;-70
2022/04/25 04:27:15;;;;;;;21.98;9.95;;;;;;;;;;5039421;28;20518;-69
2022/04/25 04:29:41;;;;;;;18.15;9.30;;;;;;;;;;5041965;28;20040;-69
2022/04/25 04:32:07;;;;;;;23.23;10.07;;;;;;;;;;5032782;28;20033;-69
2022/04/25 04:34:34;;;;;;;23.85;10.43;;;;;;;;;;5043798;28;20040;-69
2022/04/25 04:37:00;;;;;;;23.25;10.48;;;;;;;;;;5041489;28;20037;-69
2022/04/25 04:39:26;;;;;;;20.95;10.80;;;;;;;;;;5033233;28;20050;-70
2022/04/25 04:41:51;;;;;;;21.88;10.50;;;;;;;;;;5032829;28;20045;-69
2022/04/25 04:44:17;;;;;;;23.60;10.18;;;;;;;;;;5042882;28;20557;-69
2022/04/25 04:46:42;;;;;;;22.08;10.43;;;;;;;;;;5044215;28;20107;-69
2022/04/25 04:49:08;;;;;;;17.83;9.52;;;;;;;;;;5031818;28;20040;-69
2022/04/25 04:51:33;;;;;;;17.45;9.98;;;;;;;;;;5036745;28;20138;-70
2022/04/25 04:54:02;;;;;;;23.23;10.85;;;;;;;;;;5043154;28;20078;-70
2022/04/25 04:56:29;;;;;;;20.83;10.27;;;;;;;;;;5036349;28;20124;-69
2022/04/25 04:58:54;;;;;;;20.88;10.27;;;;;;;;;;5039603;28;20460;-70
2022/04/25 05:01:19;;;;;;;23.35;10.73;;;;;;;;;;5036717;28;20511;-70
2022/04/25 05:03:45;;;;;;;24.60;12.20;;;;;;;;;;5031830;28;20548;-70
2022/04/25 05:06:11;;;;;;;21.92;11.30;;;;;;;;;;5039772;28;20033;-70
2022/04/25 05:08:36;;;;;;;19.08;10.65;;;;;;;;;;5041411;28;20135;-70
2022/04/25 05:11:02;;;;;;;22.83;11.45;;;;;;;;;;5039536;28;20064;-69
2022/04/25 05:13:28;;;;;;;24.10;12.10;;;;;;;;;;5036459;28;20044;-70
2022/04/25 05:15:53;;;;;;;21.40;11.55;;;;;;;;;;5042619;28;20499;-70
2022/04/25 05:18:19;;;;;;;24.80;11.45;;;;;;;;;;5041977;28;20118;-69
2022/04/25 05:20:45;;;;;;;23.13;11.75;;;;;;;;;;5038470;28;20052;-69
2022/04/25 05:23:10;;;;;;;27.20;11.80;;;;;;;;;;5042764;28;20025;-69
2022/04/25 05:25:38;;;;;;;29.60;11.80;;;;;;;;;;5039753;28;20028;-70
2022/04/25 05:28:04;;;;;;;28.83;13.25;;;;;;;;;;5034874;28;20052;-70
2022/04/25 05:30:30;;;;;;;27.50;13.23;;;;;;;;;;5047847;28;20071;-70
2022/04/25 05:32:57;;;;;;;24.92;12.15;;;;;;;;;;5041136;28;20049;-69
2022/04/25 05:35:28;;;;;;;29.83;13.23;;;;;;;;;;5030947;28;20109;-69
2022/04/25 05:37:54;;;;;;;23.90;12.82;;;;;;;;;;5034692;28;20048;-70
2022/04/25 05:40:20;;;;;;;26.05;13.63;;;;;;;;;;5033595;28;20577;-69
2022/04/25 05:42:46;;;;;;;27.75;12.35;;;;;;;;;;5035922;28;20127;-69
2022/04/25 05:45:15;;;;;;;23.65;12.30;;;;;;;;;;5038109;28;20048;-70
2022/04/25 05:47:42;;;;;;;29.88;12.77;;;;;;;;;;5039971;28;20068;-70
2022/04/25 05:52:55;;;;;;;28.58;12.30;;;;;;;;;;5039898;28;20063;-69
2022/04/25 05:55:21;;;;;;;24.33;12.57;;;;;;;;;;5043056;28;20045;-69
2022/04/25 05:57:47;;;;;;;25.65;13.50;;;;;;;;;;5041346;28;20048;-66
2022/04/25 06:00:14;;;;;;;31.33;13.27;;;;;;;;;;5028239;28;20782;-70
2022/04/25 06:02:40;;;;;;;26.02;12.65;;;;;;;;;;5043700;28;20037;-70
2022/04/25 06:05:06;;;;;;;29.35;12.80;;;;;;;;;;5044324;28;20045;-69
2022/04/25 06:07:33;;;;;;;26.48;13.40;;;;;;;;;;5035911;28;20116;-69
2022/04/25 06:10:00;;;;;;;25.73;12.88;;;;;;;;;;5043885;28;20541;-69
2022/04/25 06:12:26;;;;;;;27.27;13.23;;;;;;;;;;5035206;28;20048;-69
2022/04/25 06:15:00;;;;;;;24.98;12.70;;;;;;;;;;5041115;28;20052;-69
2022/04/25 06:17:26;;;;;;;24.13;12.82;;;;;;;;;;5040379;28;20045;-70
2022/04/25 06:19:51;;;;;;;28.55;12.88;;;;;;;;;;5034841;28;20079;-69
2022/04/25 06:22:20;;;;;;;26.48;13.45;;;;;;;;;;5045873;28;20048;-69
2022/04/25 06:24:46;;;;;;;27.45;12.98;;;;;;;;;;5033982;28;20061;-69
2022/04/25 06:27:12;;;;;;;27.20;13.02;;;;;;;;;;5042832;28;20063;-69
2022/04/25 06:29:42;;;;;;;26.65;13.70;;;;;;;;;;5038435;28;20052;-70
2022/04/25 06:32:07;;;;;;;29.00;12.40;;;;;;;;;;5036333;28;20040;-70
2022/04/25 06:34:32;;;;;;;23.08;11.50;;;;;;;;;;5035055;28;20059;-70
2022/04/25 06:36:58;;;;;;;23.90;12.18;;;;;;;;;;5029903;28;20053;-70
2022/04/25 06:39:23;;;;;;;28.60;12.75;;;;;;;;;;5037236;28;20410;-70
2022/04/25 06:41:48;;;;;;;26.25;12.48;;;;;;;;;;5039729;28;20206;-69
2022/04/25 06:44:14;;;;;;;27.13;12.95;;;;;;;;;;5031657;28;20800;-70
2022/04/25 06:46:39;;;;;;;27.27;11.80;;;;;;;;;;5037227;28;20029;-70
2022/04/25 06:49:19;;;;;;;26.17;11.25;;;;;;;;;;5033141;28;20129;-70
2022/04/25 06:51:45;;;;;;;26.33;11.70;;;;;;;;;;5034787;28;20041;-69
2022/04/25 06:54:11;;;;;;;23.13;11.85;;;;;;;;;;5036026;28;20030;-70
2022/04/25 06:56:37;;;;;;;25.15;12.05;;;;;;;;;;5030220;28;20060;-69
2022/04/25 06:59:02;;;;;;;30.38;12.30;;;;;;;;;;5037012;28;20434;-70
2022/04/25 07:01:27;;;;;;;24.92;12.30;;;;;;;;;;5034903;28;20055;-68
2022/04/25 07:03:53;;;;;;;23.52;12.00;;;;;;;;;;5033417;28;20427;-69
2022/04/25 07:06:18;;;;;;;21.20;10.70;;;;;;;;;;5038410;28;20072;-69
2022/04/25 07:08:43;;;;;;;29.65;12.25;;;;;;;;;;5018936;28;20044;-67
2022/04/25 07:11:09;;;;;;;26.33;12.70;;;;;;;;;;5033046;28;20037;-67
2022/04/25 07:13:35;;;;;;;19.48;10.52;;;;;;;;;;5034829;28;20025;-67
2022/04/25 07:16:00;;;;;;;21.83;11.00;;;;;;;;;;5030264;28;20043;-70
2022/04/25 07:18:25;;;;;;;22.67;10.77;;;;;;;;;;5034234;28;20443;-70
2022/04/25 07:20:51;;;;;;;23.48;11.20;;;;;;;;;;5028554;28;20033;-70
2022/04/25 07:28:49;;;;;;;;;;;;;;;;;;5039356;28;20106;-68
2022/04/25 07:31:16;;;;;;;19.88;10.43;;;;;;;;;;5035075;28;20019;-69
2022/04/25 07:33:43;;;;;;;20.95;10.27;;;;;;;;;;5034847;28;20026;-67
2022/04/25 07:36:09;;;;;;;22.60;10.57;;;;;;;;;;5034940;28;20025;-68
2022/04/25 07:38:39;;;;;;;22.60;11.18;;;;;;;;;;5035705;28;20055;-67
2022/04/25 07:41:06;;;;;;;23.65;12.35;;;;;;;;;;5035331;28;20045;-67
2022/04/25 07:43:31;;;;;;;22.10;10.65;;;;;;;;;;5031088;28;20159;-68
2022/04/25 07:45:57;;;;;;;22.33;11.13;;;;;;;;;;5037840;28;20128;-69
2022/04/25 07:48:23;;;;;;;23.48;10.27;;;;;;;;;;5033302;28;20048;-71
2022/04/25 07:50:48;;;;;;;22.50;10.77;;;;;;;;;;5031153;28;20164;-68
2022/04/25 07:53:14;;;;;;;22.52;10.55;;;;;;;;;;5033995;28;20045;-68
2022/04/25 07:55:40;;;;;;;21.13;10.50;;;;;;;;;;5037718;28;20045;-69
2022/04/25 07:58:08;;;;;;;23.02;10.68;;;;;;;;;;5037368;28;20033;-70
2022/04/25 08:00:35;;;;;;;21.92;10.30;;;;;;;;;;5034736;28;20124;-71
2022/04/25 08:03:00;;;;;;;19.02;10.38;;;;;;;;;;5031638;28;20095;-71
2022/04/25 08:05:26;;;;;;;20.92;10.25;;;;;;;;;;5036994;28;20041;-68
2022/04/25 08:07:51;;;;;;;21.55;10.70;;;;;;;;;;5032263;28;20106;-67
2022/04/25 08:10:16;;;;;;;19.38;10.57;;;;;;;;;;5031347;28;20037;-70
2022/04/25 08:18:11;;;;;;;19.40;10.57;;;;;;;;;;5033693;28;20082;-71
2022/04/25 08:20:37;;;;;;;21.35;10.20;;;;;;;;;;5032472;28;20578;-70
2022/04/25 08:23:13;;;;;;;18.92;10.82;;;;;;;;;;5034748;28;20036;-70
2022/04/25 08:25:40;;;;;;;22.00;10.48;;;;;;;;;;5029822;28;20047;-70
2022/04/25 08:28:06;;;;;;;23.38;9.75;;;;;;;;;;5030140;28;20041;-69
2022/04/25 08:30:32;;;;;;;16.52;8.65;;;;;;;;;;5033360;28;20025;-70
2022/04/25 08:32:58;;;;;;;14.30;8.80;;;;;;;;;;5034213;28;20064;-66
2022/04/25 08:35:24;;;;;;;16.27;8.52;;;;;;;;;;5046721;28;20584;-71
2022/04/25 08:37:49;;;;;;;16.05;8.48;;;;;;;;;;5029716;28;20036;-69
2022/04/25 08:40:15;;;;;;;12.95;7.75;;;;;;;;;;5041421;28;20049;-71
2022/04/25 08:42:41;;;;;;;16.30;8.93;;;;;;;;;;5041772;28;20599;-71
2022/04/25 08:45:07;;;;;;;15.98;8.65;;;;;;;;;;5037691;28;20029;-71
2022/04/25 08:47:46;;;;;;;13.77;8.43;;;;;;;;;;5036026;28;20034;-71
2022/04/25 08:50:12;;;;;;;16.75;8.52;;;;;;;;;;5029500;28;20663;-71
2022/04/25 08:52:40;;;;;;;15.25;8.52;;;;;;;;;;5038851;28;20037;-71
2022/04/25 08:55:06;;;;;;;15.70;8.75;;;;;;;;;;5035636;28;20573;-71
2022/04/25 08:57:35;;;;;;;15.57;8.38;;;;;;;;;;5036665;28;20029;-72
2022/04/25 09:00:04;;;;;;;17.88;8.15;;;;;;;;;;5035186;28;20037;-73
2022/04/25 09:02:29;;;;;;;18.60;7.75;;;;;;;;;;5040359;28;20120;-73
2022/04/25 09:04:55;;;;;;;15.60;8.30;;;;;;;;;;5034876;28;20198;-75
2022/04/25 09:07:21;;;;;;;14.88;8.38;;;;;;;;;;5042639;28;20048;-73
2022/04/25 09:09:46;;;;;;;17.48;8.60;;;;;;;;;;5035417;28;20064;-74
2022/04/25 09:12:15;;;;;;;14.35;8.20;;;;;;;;;;5029716;28;20022;-75
2022/04/25 09:14:45;;;;;;;12.48;7.40;;;;;;;;;;5048412;28;20059;-71
2022/04/25 09:17:10;;;;;;;14.88;8.25;;;;;;;;;;5042868;28;20067;-73
2022/04/25 09:19:37;;;;;;;13.27;8.23;;;;;;;;;;5041156;28;20056;-72
2022/04/25 09:22:04;;;;;;;15.43;9.25;;;;;;;;;;5045825;28;20025;-72
2022/04/25 09:24:35;;;;;;;18.42;7.93;;;;;;;;;;5035051;28;20511;-72
2022/04/25 09:27:13;;;;;;;12.98;7.57;;;;;;;;;;5034113;28;20132;-72
2022/04/25 09:29:40;;;;;;;17.65;8.05;;;;;;;;;;5043566;28;20049;-71
2022/04/25 09:32:09;;;;;;;16.25;7.88;;;;;;;;;;5047156;28;20051;-71
2022/04/25 09:37:19;;;;;;;19.73;7.97;;;;;;;;;;5048174;28;20084;-72
2022/04/25 09:39:44;;;;;;;14.45;8.00;;;;;;;;;;5039521;28;20033;-73
2022/04/25 09:42:10;;;;;;;15.50;7.70;;;;;;;;;;5043892;28;20045;-73
2022/04/25 09:44:58;;;;;;;14.45;8.40;;;;;;;;;;5035508;28;20029;-73
2022/04/25 09:47:32;;;;;;;13.57;7.30;;;;;;;;;;5040892;28;20462;-72
2022/04/25 09:50:05;;;;;;;13.10;7.85;;;;;;;;;;5036186;28;20520;-71
2022/04/25 09:52:32;;;;;;;12.35;7.35;;;;;;;;;;5043259;28;20045;-72
2022/04/25 09:55:18;;;;;;;18.55;8.10;;;;;;;;;;5041270;28;20129;-71
2022/04/25 09:57:48;;;;;;;14.98;7.72;;;;;;;;;;5039798;28;20041;-72
2022/04/25 10:00:30;;;;;;;12.88;7.32;;;;;;;;;;5033807;28;20641;-73
2022/04/25 10:02:55;;;;;;;13.82;8.00;;;;;;;;;;5042983;28;20446;-74
2022/04/25 10:05:21;;;;;;;15.15;8.40;;;;;;;;;;5039492;28;20033;-74
2022/04/25 10:07:47;;;;;;;13.82;8.35;;;;;;;;;;5035571;28;20060;-75
2022/04/25 10:10:13;;;;;;;12.82;7.65;;;;;;;;;;5040414;28;20037;-72
2022/04/25 10:12:39;;;;;;;14.07;8.02;;;;;;;;;;5038901;28;20489;-73
2022/04/25 10:15:06;;;;;;;12.23;7.75;;;;;;;;;;5034741;28;20491;-73
2022/04/25 10:17:36;;;;;;;14.43;7.85;;;;;;;;;;5042808;28;20032;-72
2022/04/25 10:20:02;;;;;;;14.85;7.95;;;;;;;;;;5034409;28;20445;-70
2022/04/25 10:22:28;;;;;;;13.02;8.57;;;;;;;;;;5037824;28;20333;-72
2022/04/25 10:24:53;;;;;;;12.60;7.72;;;;;;;;;;5036863;28;20095;-72
2022/04/25 10:27:27;;;;;;;11.10;7.85;;;;;;;;;;5038888;28;20025;-73
2022/04/25 10:29:54;;;;;;;12.60;8.20;;;;;;;;;;5033908;28;20033;-73
2022/04/25 10:32:21;;;;;;;13.70;7.70;;;;;;;;;;5037982;28;20057;-73
2022/04/25 10:34:54;;;;;;;16.48;7.95;;;;;;;;;;5038780;28;20151;-75
2022/04/25 10:37:29;;;;;;;17.23;7.95;;;;;;;;;;5046324;28;20510;-75
2022/04/25 10:39:55;;;;;;;17.13;7.13;;;;;;;;;;5047522;28;20037;-76
2022/04/25 10:45:18;;;;;;;13.38;7.32;;;;;;;;;;5032740;28;20068;-77
2022/04/25 10:47:58;;;;;;;14.15;7.57;;;;;;;;;;5045532;28;20857;-74
2022/04/25 10:50:23;;;;;;;13.70;8.15;;;;;;;;;;5034786;28;20033;-75
2022/04/25 10:55:29;;;;;;;13.32;8.98;;;;;;;;;;5041856;28;20068;-75
2022/04/25 10:58:10;;;;;;;20.30;9.85;;;;;;;;;;5034923;28;20045;-74
2022/04/25 11:03:08;;;;;;;15.57;9.93;;;;;;;;;;5039919;28;20029;-75
2022/04/25 11:05:39;;;;;;;18.77;9.70;;;;;;;;;;5033225;28;20574;-76
2022/04/25 11:08:19;;;;;;;20.55;9.82;;;;;;;;;;5034536;28;20029;-75
2022/04/25 11:10:45;;;;;;;19.35;9.98;;;;;;;;;;5033353;28;20518;-74
2022/04/25 11:13:12;;;;;;;16.20;10.07;;;;;;;;;;5034887;28;20046;-73
2022/04/25 11:15:39;;;;;;;17.42;9.90;;;;;;;;;;5036227;28;20590;-74
2022/04/25 11:18:38;;;;;;;19.48;9.85;;;;;;;;;;5035930;28;20021;-74
2022/04/25 11:21:12;;;;;;;17.92;9.95;;;;;;;;;;5035835;28;20033;-75
2022/04/25 11:23:43;;;;;;;22.70;10.80;;;;;;;;;;5034863;28;20045;-72
2022/04/25 11:26:11;;;;;;;16.55;9.63;;;;;;;;;;5039028;28;20047;-76
2022/04/25 11:28:58;;;;;;;16.45;10.25;;;;;;;;;;5040965;28;20110;-72
2022/04/25 11:31:33;;;;;;;20.55;11.38;;;;;;;;;;5041629;28;20040;-71
2022/04/25 11:34:04;;;;;;;16.23;10.00;;;;;;;;;;5034562;28;20047;-77
2022/04/25 11:36:35;;;;;;;19.30;10.77;;;;;;;;;;5040386;28;20049;-76
2022/04/25 11:41:45;;;;;;;19.88;11.48;;;;;;;;;;5030916;28;20095;-71
2022/04/25 11:44:11;;;;;;;20.98;11.23;;;;;;;;;;5037469;28;20036;-73
2022/04/25 11:46:37;;;;;;;19.98;10.50;;;;;;;;;;5038514;28;20041;-73
2022/04/25 11:49:04;;;;;;;17.58;10.18;;;;;;;;;;5033731;28;20037;-73
2022/04/25 11:51:33;;;;;;;18.33;11.18;;;;;;;;;;5042601;28;20482;-73
2022/04/25 11:54:03;;;;;;;18.25;10.00;;;;;;;;;;5046194;28;20040;-73
2022/04/25 11:56:29;;;;;;;17.70;10.07;;;;;;;;;;5048093;28;20033;-73
2022/04/25 11:58:56;;;;;;;17.17;9.63;;;;;;;;;;5031173;28;20067;-74
2022/04/25 12:01:36;;;;;;;18.27;9.65;;;;;;;;;;5030024;28;20034;-73
2022/04/25 12:04:24;;;;;;;16.67;10.10;;;;;;;;;;5043018;28;20140;-73
2022/04/25 12:06:58;;;;;;;19.17;10.80;;;;;;;;;;5026810;28;20091;-71
2022/04/25 12:17:51;;;;;;;18.02;9.35;;;;;;;;;;5039039;28;20044;-70
2022/04/25 12:20:19;;;;;;;14.55;9.95;;;;;;;;;;5036092;28;20040;-71
2022/04/25 12:22:58;;;;;;;16.88;9.30;;;;;;;;;;5044433;28;20033;-72
2022/04/25 12:25:26;;;;;;;17.08;9.38;;;;;;;;;;5033876;28;20746;-72
2022/04/25 12:28:13;;;;;;;22.20;9.45;;;;;;;;;;5038139;28;20021;-72
2022/04/25 12:30:45;;;;;;;13.65;8.05;;;;;;;;;;5034844;28;20028;-72
2022/04/25 12:33:13;;;;;;;13.17;8.87;;;;;;;;;;5035492;28;20125;-72
2022/04/25 12:35:39;;;;;;;14.98;7.90;;;;;;;;;;5036442;28;20033;-72
2022/04/25 12:38:05;;;;;;;15.18;8.35;;;;;;;;;;5036364;28;20041;-72
2022/04/25 12:40:31;;;;;;;13.43;8.52;;;;;;;;;;5031361;28;20041;-72
2022/04/25 12:42:57;;;;;;;12.63;8.27;;;;;;;;;;5031834;28;20104;-72
2022/04/25 12:45:23;;;;;;;14.63;9.07;;;;;;;;;;5032308;28;20168;-71
2022/04/25 12:47:58;;;;;;;17.33;8.57;;;;;;;;;;5041159;28;20041;-72
2022/04/25 12:50:43;;;;;;;13.20;8.73;;;;;;;;;;5040020;28;20029;-72
2022/04/25 12:53:10;;;;;;;14.30;8.68;;;;;;;;;;5034376;28;20090;-73
2022/04/25 12:56:01;;;;;;;14.52;8.50;;;;;;;;;;5040913;28;20052;-72
2022/04/25 12:58:32;;;;;;;11.35;7.07;;;;;;;;;;5025846;28;20068;-72
2022/04/25 13:00:58;;;;;;;12.63;7.72;;;;;;;;;;5042600;28;20529;-72
2022/04/25 13:03:26;;;;;;;13.95;8.20;;;;;;;;;;5040565;28;20136;-71
2022/04/25 13:05:52;;;;;;;12.35;7.80;;;;;;;;;;5032333;28;20060;-71
2022/04/25 13:08:17;;;;;;;13.80;7.90;;;;;;;;;;5039645;28;20033;-70
2022/04/25 13:10:43;;;;;;;10.68;6.38;;;;;;;;;;5042297;28;20414;-70
2022/04/25 13:13:10;;;;;;;13.13;7.05;;;;;;;;;;5037277;28;20451;-70
2022/04/25 13:15:38;;;;;;;10.07;6.53;;;;;;;;;;5029311;28;20057;-70
2022/04/25 13:18:04;;;;;;;11.93;7.28;;;;;;;;;;5033688;28;20494;-70
2022/04/25 13:20:31;;;;;;;9.90;6.60;;;;;;;;;;5039116;28;20695;-71
2022/04/25 13:22:59;;;;;;;11.35;6.80;;;;;;;;;;5042059;28;20038;-70
2022/04/25 13:25:25;;;;;;;8.40;6.40;;;;;;;;;;5037193;28;20037;-71
2022/04/25 13:27:54;;;;;;;10.35;6.78;;;;;;;;;;5034767;28;20032;-71
2022/04/25 13:30:20;;;;;;;11.25;6.53;;;;;;;;;;5041789;28;20029;-71
2022/04/25 13:32:46;;;;;;;9.45;5.95;;;;;;;;;;5030967;28;20614;-70
2022/04/25 13:35:14;;;;;;;10.50;5.90;;;;;;;;;;5033660;28;20033;-72
2022/04/25 13:37:40;;;;;;;10.82;6.80;;;;;;;;;;5028946;28;20042;-72
2022/04/25 13:40:06;;;;;;;12.07;6.35;;;;;;;;;;5036152;28;20065;-70
2022/04/25 13:42:32;;;;;;;8.38;6.07;;;;;;;;;;5035661;28;20534;-71
2022/04/25 13:44:57;;;;;;;8.98;5.88;;;;;;;;;;5034310;28;20065;-71
2022/04/25 13:47:23;;;;;;;9.10;5.85;;;;;;;;;;5034587;28;20152;-71
2022/04/25 13:49:48;;;;;;;10.32;5.90;;;;;;;;;;5031413;28;20053;-71
2022/04/25 13:52:14;;;;;;;11.05;5.80;;;;;;;;;;5037925;28;20132;-70
2022/04/25 13:54:42;;;;;;;8.73;5.05;;;;;;;;;;5034326;28;20041;-70
2022/04/25 13:57:10;;;;;;;8.75;5.43;;;;;;;;;;5039756;28;20340;-71
2022/04/25 13:59:35;;;;;;;10.60;5.57;;;;;;;;;;5037334;28;20132;-70
2022/04/25 14:03:05;;;;;;;8.85;5.63;;;;;;;;;;5037747;28;20116;-70
2022/04/25 14:04:48;;;;;;;10.05;5.68;;;;;;;;;;5036020;28;20120;-70
2022/04/25 14:07:14;;;;;;;8.20;5.82;;;;;;;;;;5034984;28;20541;-70
2022/04/25 14:09:39;;;;;;;8.68;5.95;;;;;;;;;;5040578;28;20025;-72
2022/04/25 14:12:05;;;;;;;10.05;5.68;;;;;;;;;;5043339;28;20061;-69
2022/04/25 14:14:30;;;;;;;10.52;5.70;;;;;;;;;;5033468;28;20033;-70
2022/04/25 14:16:56;;;;;;;9.45;6.05;;;;;;;;;;5036936;28;20608;-70
2022/04/25 14:19:21;;;;;;;8.85;6.05;;;;;;;;;;5041965;28;20453;-71
2022/04/25 14:21:49;;;;;;;10.50;6.15;;;;;;;;;;5026068;28;20075;-70
2022/04/25 14:24:15;;;;;;;9.50;6.43;;;;;;;;;;5039081;28;20426;-70
2022/04/25 14:26:42;;;;;;;9.45;6.10;;;;;;;;;;5042032;28;20052;-70
2022/04/25 14:29:07;;;;;;;10.07;6.85;;;;;;;;;;5038354;28;20036;-71
2022/04/25 14:31:33;;;;;;;10.13;6.28;;;;;;;;;;5034722;28;20033;-71
2022/04/25 14:33:58;;;;;;;10.07;6.25;;;;;;;;;;5031193;28;20037;-73
2022/04/25 14:36:23;;;;;;;12.45;6.50;;;;;;;;;;5041402;28;20005;-73
2022/04/25 14:38:49;;;;;;;9.63;6.40;;;;;;;;;;5036655;28;20793;-72
2022/04/25 14:41:14;;;;;;;10.32;6.53;;;;;;;;;;5039825;28;20047;-72
2022/04/25 14:43:39;;;;;;;10.68;6.97;;;;;;;;;;5032718;28;20426;-72
2022/04/25 14:46:05;;;;;;;10.98;6.10;;;;;;;;;;5030273;28;20050;-72
2022/04/25 14:48:31;;;;;;;9.38;6.63;;;;;;;;;;5041741;28;20919;-73
2022/04/25 14:56:24;;;;;;;9.98;5.72;;;;;;;;;;5036695;28;19925;-73
2022/04/25 14:58:54;;;;;;;9.90;6.68;;;;;;;;;;5028832;28;20029;-72
2022/04/25 15:01:20;;;;;;;10.90;6.38;;;;;;;;;;5037486;28;20043;-72
2022/04/25 15:03:45;;;;;;;10.68;6.53;;;;;;;;;;5039352;28;20049;-72
2022/04/25 15:06:11;;;;;;;9.75;6.07;;;;;;;;;;5038347;28;20033;-72
2022/04/25 15:08:36;;;;;;;8.68;5.95;;;;;;;;;;5038911;28;20044;-72
2022/04/25 15:11:03;;;;;;;10.48;6.63;;;;;;;;;;5042440;28;20036;-73
2022/04/25 15:13:32;;;;;;;10.82;6.75;;;;;;;;;;5031913;28;20079;-73
2022/04/25 15:15:57;;;;;;;11.70;6.95;;;;;;;;;;5039159;28;20102;-73
2022/04/25 15:18:23;;;;;;;10.68;7.20;;;;;;;;;;5041762;28;20029;-73